createdAt,value
2022-10-06T00:05:00.012Z,100679.00
2022-10-06T00:10:01.540Z,100672.91
2022-10-06T00:15:03.089Z,100676.78
2022-10-06T00:20:05.144Z,100678.25
2022-10-06T00:25:07.942Z,100679.22
2022-10-06T00:30:12.368Z,100673.16
2022-10-06T00:35:13.945Z,100676.78
2022-10-06T00:40:15.796Z,100679.19
2022-10-06T00:45:19.027Z,100675.81
2022-10-06T00:50:20.715Z,100676.44
2022-10-06T00:55:22.501Z,100675.72
2022-10-06T01:00:24.042Z,100679.31
2022-10-06T01:05:34.627Z,100684.72
2022-10-06T01:10:36.205Z,100672.84
2022-10-06T01:15:41.554Z,100678.47
2022-10-06T01:20:48.273Z,100691.31
2022-10-06T01:25:50.266Z,100690.47
2022-10-06T01:30:54.367Z,100694.19
2022-10-06T01:35:58.339Z,100699.09
2022-10-06T01:40:59.886Z,100701.13
2022-10-06T01:46:01.524Z,100706.41
2022-10-06T01:51:03.486Z,100708.09
2022-10-06T01:56:05.326Z,100705.91
2022-10-06T02:01:08.029Z,100722.81
2022-10-06T02:06:10.895Z,100727.59
2022-10-06T02:11:13.264Z,100733.00
2022-10-06T02:16:18.941Z,100741.75
2022-10-06T02:21:22.960Z,100747.81
2022-10-06T02:26:24.613Z,100753.59
2022-10-06T02:31:26.667Z,100761.34
2022-10-06T02:36:28.516Z,100767.44
2022-10-06T02:41:31.131Z,100764.78
2022-10-06T02:46:32.884Z,100755.78
2022-10-06T02:51:35.470Z,100768.28
2022-10-06T02:56:37.960Z,100755.78
2022-10-06T03:01:39.598Z,100748.38
2022-10-06T03:06:46.137Z,100759.53
2022-10-06T03:11:58.591Z,100773.53
2022-10-06T03:17:09.944Z,100790.56
2022-10-06T03:22:15.465Z,100783.31
2022-10-06T03:27:23.790Z,100787.19
2022-10-06T03:32:28.926Z,100795.44
2022-10-06T03:37:30.632Z,100810.09
2022-10-06T03:42:32.250Z,100809.44
2022-10-06T03:47:33.827Z,100817.19
2022-10-06T03:52:36.020Z,100832.72
2022-10-06T03:57:37.655Z,100836.25
2022-10-06T04:02:40.590Z,100844.03
2022-10-06T04:07:42.201Z,100854.81
2022-10-06T04:12:43.909Z,100861.22
2022-10-06T04:17:45.579Z,100849.09
2022-10-06T04:22:47.205Z,100857.50
2022-10-06T04:27:48.855Z,100864.59
2022-10-06T04:32:51.139Z,100875.41
2022-10-06T04:37:52.921Z,100868.66
2022-10-06T04:42:54.606Z,100869.16
2022-10-06T04:47:56.305Z,100873.19
2022-10-06T04:52:57.874Z,100876.41
2022-10-06T04:57:59.600Z,100881.78
2022-10-06T05:03:01.559Z,100899.00
2022-10-06T05:08:03.536Z,100910.16
2022-10-06T05:13:06.154Z,100926.69
2022-10-06T05:18:08.155Z,100929.22
2022-10-06T05:23:09.849Z,100937.50
2022-10-06T05:28:11.590Z,100939.69
2022-10-06T05:33:13.187Z,100940.72
2022-10-06T05:38:15.154Z,100952.69
2022-10-06T05:43:17.859Z,100957.56
2022-10-06T05:48:20.168Z,100964.81
2022-10-06T05:53:21.843Z,100974.59
2022-10-06T05:58:23.655Z,100987.09
2022-10-06T06:03:25.300Z,100991.47
2022-10-06T06:08:27.495Z,101006.81
2022-10-06T06:13:30.922Z,101028.63
2022-10-06T06:18:40.324Z,101032.50
2022-10-06T06:23:46.400Z,101053.63
2022-10-06T06:28:53.731Z,101121.19
2022-10-06T06:33:57.390Z,101146.59
2022-10-06T06:39:04.251Z,101177.16
2022-10-06T06:44:16.640Z,101196.47
2022-10-06T06:49:25.572Z,101217.53
2022-10-06T06:54:31.902Z,101238.16
2022-10-06T06:59:38.976Z,101241.56
2022-10-06T07:04:43.800Z,101260.91
2022-10-06T07:09:48.186Z,101284.38
2022-10-06T07:15:10.031Z,101301.00
2022-10-06T07:20:33.876Z,101310.25
2022-10-06T07:25:35.477Z,101320.25
2022-10-06T07:30:41.708Z,101328.09
2022-10-06T07:35:53.448Z,101330.34
2022-10-06T07:41:17.896Z,101339.19
2022-10-06T07:46:19.801Z,101351.16
2022-10-06T07:51:34.274Z,101363.00
2022-10-06T07:56:37.186Z,101368.94
2022-10-06T08:01:39.420Z,101385.28
2022-10-06T08:06:41.996Z,101387.03
2022-10-06T08:11:45.029Z,101386.41
2022-10-06T08:16:46.672Z,101392.28
2022-10-06T08:21:48.186Z,101396.47
2022-10-06T08:26:49.675Z,101404.63
2022-10-06T08:31:51.285Z,101406.00
2022-10-06T08:37:18.727Z,101422.97
2022-10-06T08:42:21.523Z,101430.06
2022-10-06T08:47:23.879Z,101426.72
2022-10-06T08:52:46.836Z,101434.06
2022-10-06T08:58:17.743Z,101443.72
2022-10-06T09:03:24.081Z,101451.44
2022-10-06T09:08:52.458Z,101452.88
2022-10-06T09:13:59.769Z,101447.13
2022-10-06T09:19:09.464Z,101450.75
2022-10-06T09:24:14.748Z,101454.91
2022-10-06T09:29:16.836Z,101471.50
2022-10-06T09:34:39.414Z,101468.22
2022-10-06T09:39:48.046Z,101465.66
2022-10-06T09:45:01.668Z,101478.63
2022-10-06T09:50:16.169Z,101477.94
2022-10-06T09:55:19.164Z,101479.41
2022-10-06T10:00:27.041Z,101480.41
2022-10-06T10:05:39.955Z,101496.69
2022-10-06T10:10:41.466Z,101487.53
2022-10-06T10:15:53.567Z,101496.72
2022-10-06T10:20:59.513Z,101499.94
2022-10-06T10:26:10.371Z,101502.13
2022-10-06T10:31:33.514Z,101507.94
2022-10-06T10:36:39.484Z,101502.19
2022-10-06T10:41:50.696Z,101511.25
2022-10-06T10:46:55.120Z,101526.25
2022-10-06T10:52:11.465Z,101515.97
2022-10-06T10:57:16.465Z,101526.38
2022-10-06T11:02:22.310Z,101528.69
2022-10-06T11:07:50.053Z,101530.81
2022-10-06T11:13:04.863Z,101533.63
2022-10-06T11:18:44.106Z,101534.75
2022-10-06T11:24:05.433Z,101538.59
2022-10-06T11:29:30.238Z,101537.63
2022-10-06T11:34:31.794Z,101532.25
2022-10-06T11:39:48.210Z,101529.47
2022-10-06T11:44:54.538Z,101532.19
2022-10-06T11:49:56.194Z,101534.56
2022-10-06T11:55:08.653Z,101530.56
2022-10-06T12:00:16.127Z,101536.34
2022-10-06T12:05:54.865Z,101525.19
2022-10-06T12:10:50.117Z,101532.81
2022-10-06T12:21:45.540Z,101536.06
2022-10-06T12:26:51.884Z,101532.31
2022-10-06T12:32:08.533Z,101535.50
2022-10-06T12:37:21.947Z,101525.88
2022-10-06T12:42:27.753Z,101528.09
2022-10-06T12:47:34.437Z,101525.56
2022-10-06T12:52:48.149Z,101532.16
2022-10-06T12:57:54.178Z,101538.22
2022-10-06T13:02:57.602Z,101538.78
2022-10-06T13:08:07.585Z,101530.31
2022-10-06T13:13:23.364Z,101526.59
2022-10-06T13:18:25.167Z,101534.88
2022-10-06T13:23:31.176Z,101541.44
2022-10-06T13:28:35.631Z,101544.81
2022-10-06T13:33:39.604Z,101535.16
2022-10-06T13:38:42.222Z,101544.81
2022-10-06T13:43:55.900Z,101550.56
2022-10-06T13:49:00.838Z,101551.56
2022-10-06T13:54:18.283Z,101564.75
2022-10-06T13:59:39.857Z,101566.81
2022-10-06T14:04:41.551Z,101570.50
2022-10-06T14:09:43.291Z,101563.72
2022-10-06T14:14:49.561Z,101565.25
2022-10-06T14:19:51.397Z,101562.03
2022-10-06T14:24:52.884Z,101564.19
2022-10-06T14:29:56.221Z,101559.47
2022-10-06T14:34:57.948Z,101569.44
2022-10-06T14:39:59.700Z,101574.31
2022-10-06T14:45:02.773Z,101562.66
2022-10-06T14:50:05.493Z,101556.56
2022-10-06T14:55:08.197Z,101566.38
2022-10-06T15:00:10.411Z,101566.69
2022-10-06T15:05:11.946Z,101573.09
2022-10-06T15:10:13.449Z,101578.38
2022-10-06T15:15:16.605Z,101566.31
2022-10-06T15:20:18.155Z,101569.31
2022-10-06T15:25:38.204Z,101573.31
2022-10-06T15:30:41.002Z,101581.41
2022-10-06T15:35:49.500Z,101576.13
2022-10-06T15:41:02.180Z,101581.31
2022-10-06T15:46:03.711Z,101582.63
2022-10-06T15:51:05.308Z,101580.94
2022-10-06T15:56:06.824Z,101572.44
2022-10-06T16:01:11.549Z,101580.81
2022-10-06T16:06:16.872Z,101582.81
2022-10-06T16:11:18.353Z,101578.22
2022-10-06T16:16:19.901Z,101584.28
2022-10-06T16:21:21.524Z,101582.06
2022-10-06T16:26:25.739Z,101589.25
2022-10-06T16:31:27.705Z,101586.63
2022-10-06T16:36:29.316Z,101592.25
2022-10-06T16:41:30.887Z,101593.00
2022-10-06T16:46:32.804Z,101597.72
2022-10-06T16:51:39.066Z,101604.72
2022-10-06T16:56:46.430Z,101610.25
2022-10-06T17:01:49.238Z,101621.03
2022-10-06T17:06:55.892Z,101619.84
2022-10-06T17:11:59.235Z,101630.66
2022-10-06T17:17:00.827Z,101635.09
2022-10-06T17:22:02.472Z,101643.16
2022-10-06T17:27:04.323Z,101639.00
2022-10-06T17:32:05.969Z,101638.78
2022-10-06T17:37:07.608Z,101639.00
2022-10-06T17:42:13.666Z,101646.63
2022-10-06T17:47:15.194Z,101642.38
2022-10-06T17:52:20.667Z,101645.09
2022-10-06T17:57:24.780Z,101643.81
2022-10-06T18:02:26.668Z,101650.91
2022-10-06T18:07:28.192Z,101640.84
2022-10-06T18:12:36.076Z,101638.53
2022-10-06T18:17:37.677Z,101646.81
2022-10-06T18:22:39.527Z,101645.09
2022-10-06T18:27:42.054Z,101650.03
2022-10-06T18:38:05.394Z,101643.78
2022-10-06T18:43:07.037Z,101653.59
2022-10-06T18:48:27.878Z,101652.41
2022-10-06T18:53:32.591Z,101656.53
2022-10-06T18:58:41.021Z,101652.84
2022-10-06T19:03:42.538Z,101649.03
2022-10-06T19:08:44.265Z,101661.72
2022-10-06T19:13:49.933Z,101665.81
2022-10-06T19:18:51.575Z,101660.59
2022-10-06T19:23:53.110Z,101671.72
2022-10-06T19:28:54.682Z,101665.41
2022-10-06T19:34:01.591Z,101661.22
2022-10-06T19:39:05.334Z,101674.56
2022-10-06T19:44:06.846Z,101674.13
2022-10-06T19:49:10.452Z,101674.91
2022-10-06T19:54:13.096Z,101672.88
2022-10-06T19:59:20.499Z,101679.94
2022-10-06T20:04:23.099Z,101669.81
2022-10-06T20:09:24.901Z,101684.88
2022-10-06T20:14:26.625Z,101683.94
2022-10-06T20:19:28.218Z,101692.50
2022-10-06T20:24:31.790Z,101689.22
2022-10-06T20:29:34.625Z,101684.00
2022-10-06T20:34:36.146Z,101684.44
2022-10-06T20:39:56.347Z,101692.34
2022-10-06T20:44:57.851Z,101692.53
2022-10-06T20:49:59.331Z,101689.75
2022-10-06T20:55:00.814Z,101690.22
2022-10-06T21:00:02.420Z,101689.88
2022-10-06T21:05:04.946Z,101687.56
2022-10-06T21:10:07.622Z,101694.81
2022-10-06T21:15:09.888Z,101682.69
2022-10-06T21:20:11.423Z,101682.63
2022-10-06T21:25:13.252Z,101679.88
2022-10-06T21:30:14.918Z,101677.50
2022-10-06T21:35:16.444Z,101673.22
2022-10-06T21:40:17.992Z,101673.69
2022-10-06T21:45:24.252Z,101658.16
2022-10-06T21:50:26.366Z,101660.97
2022-10-06T21:55:28.197Z,101662.31
2022-10-06T22:00:29.746Z,101663.22
2022-10-06T22:05:33.327Z,101655.38
2022-10-06T22:10:34.989Z,101663.69
2022-10-06T22:15:36.694Z,101662.97
2022-10-06T22:20:38.241Z,101661.47
2022-10-06T22:25:39.819Z,101658.34
2022-10-06T22:30:41.355Z,101655.59
2022-10-06T22:35:50.923Z,101657.94
2022-10-06T22:40:52.680Z,101657.97
2022-10-06T22:45:54.209Z,101663.44
2022-10-06T22:50:55.910Z,101655.00
2022-10-06T22:56:01.682Z,101649.69
2022-10-06T23:01:11.291Z,101645.41
2022-10-06T23:06:14.988Z,101647.72
2022-10-06T23:11:18.638Z,101644.22
2022-10-06T23:16:20.886Z,101645.56
2022-10-06T23:21:24.300Z,101643.38
2022-10-06T23:26:26.326Z,101649.19
2022-10-06T23:31:28.670Z,101651.63
2022-10-06T23:36:30.236Z,101644.69
2022-10-06T23:41:31.971Z,101636.78
2022-10-06T23:46:33.503Z,101635.44
2022-10-06T23:51:35.050Z,101644.44
2022-10-06T23:56:36.561Z,101633.00
